Time;durP1;ratioP1;P1;durP2;ratioP2;P2;SDS_P1;SDS_P2;PMS_P1;PMS_P2;Temp;Humidity;BMP_temperature;BMP_pressure;BME280_temperature;BME280_humidity;BME280_pressure;Samples;Min_cycle;Max_cycle;Signal;HPM_P1;HPM_P2
2024/01/23 00:02:46;;;;;;;8.57;3.07;;;4.40;1.00;;;;;;10293904;28;20236;-85
2024/01/23 00:08:08;;;;;;;13.83;3.53;;;4.40;1.00;;;;;;10311128;28;20189;-84
2024/01/23 00:13:28;;;;;;;10.40;3.83;;;4.40;1.00;;;;;;10272685;28;20221;-84
2024/01/23 00:18:52;;;;;;;11.23;3.23;;;4.30;1.00;;;;;;10434877;28;20326;-83
2024/01/23 00:24:13;;;;;;;10.90;3.63;;;4.30;1.00;;;;;;10368779;28;20233;-79
2024/01/23 00:29:37;;;;;;;15.87;3.47;;;4.20;1.00;;;;;;10298425;28;20199;-85
2024/01/23 00:34:58;;;;;;;16.23;3.47;;;4.20;1.00;;;;;;10310818;28;20205;-83
2024/01/23 00:40:20;;;;;;;13.73;3.73;;;4.10;1.00;;;;;;10309145;28;20494;-84
2024/01/23 00:45:41;;;;;;;13.37;3.20;;;4.10;1.00;;;;;;10311075;28;20252;-83
2024/01/23 00:51:03;;;;;;;19.43;3.20;;;3.90;1.00;;;;;;10395533;28;20197;-83
2024/01/23 00:56:25;;;;;;;11.13;2.90;;;4.00;1.00;;;;;;10328281;28;20395;-81
2024/01/23 01:01:47;;;;;;;15.00;3.27;;;4.10;1.00;;;;;;10410718;28;20449;-83
2024/01/23 01:07:11;;;;;;;12.33;2.73;;;4.00;1.00;;;;;;10370530;28;20206;-84
2024/01/23 01:12:34;;;;;;;13.03;3.40;;;4.00;1.00;;;;;;10396267;28;20214;-78
2024/01/23 01:17:58;;;;;;;11.33;3.77;;;4.00;1.00;;;;;;10363494;28;20306;-82
2024/01/23 01:23:20;;;;;;;14.33;3.83;;;4.00;1.00;;;;;;10306296;28;20281;-78
2024/01/23 01:28:41;;;;;;;10.43;3.53;;;4.10;1.00;;;;;;10308670;28;20354;-83
2024/01/23 01:34:02;;;;;;;18.40;3.23;;;4.20;1.00;;;;;;10309176;28;20295;-83
2024/01/23 01:39:24;;;;;;;11.40;3.13;;;4.20;1.00;;;;;;10307846;28;20524;-83
2024/01/23 01:44:46;;;;;;;12.33;3.77;;;4.10;1.00;;;;;;10340812;28;20276;-84
2024/01/23 01:50:08;;;;;;;14.23;3.50;;;4.20;1.00;;;;;;10308392;28;20254;-84
2024/01/23 01:55:29;;;;;;;14.83;3.27;;;4.20;1.00;;;;;;10308412;28;20193;-84
2024/01/23 02:00:53;;;;;;;14.43;3.57;;;4.20;1.00;;;;;;10307846;28;20398;-79
2024/01/23 02:06:17;;;;;;;16.47;4.07;;;4.20;99.90;;;;;;10363335;28;20400;-82
2024/01/23 02:11:55;;;;;;;15.80;3.97;;;4.00;1.00;;;;;;10372347;28;20211;-82
2024/01/23 02:17:20;;;;;;;19.33;4.37;;;4.20;1.00;;;;;;10406532;28;20241;-82
2024/01/23 02:22:43;;;;;;;16.53;4.37;;;4.10;1.00;;;;;;10323196;28;20276;-79
2024/01/23 02:28:04;;;;;;;11.83;3.37;;;4.20;99.90;;;;;;10307842;28;20522;-79
2024/01/23 02:33:25;;;;;;;10.47;3.77;;;4.20;1.00;;;;;;10320560;28;20231;-79
2024/01/23 02:38:47;;;;;;;17.50;4.07;;;4.30;99.90;;;;;;10307645;28;20192;-78
2024/01/23 02:44:08;;;;;;;15.00;3.77;;;4.30;99.90;;;;;;10338765;28;20227;-84
2024/01/23 02:49:32;;;;;;;14.03;4.07;;;4.30;99.90;;;;;;10307427;28;20199;-81
2024/01/23 02:54:54;;;;;;;14.17;5.10;;;4.30;99.90;;;;;;10286632;28;20207;-84
2024/01/23 03:00:18;;;;;;;15.83;3.70;;;4.30;19.80;;;;;;10349326;28;20199;-83
2024/01/23 03:05:41;;;;;;;15.47;3.80;;;4.40;6.90;;;;;;10314114;28;20250;-84
2024/01/23 03:11:05;;;;;;;20.77;4.17;;;4.30;59.80;;;;;;10414933;28;20249;-83
2024/01/23 03:16:26;;;;;;;13.47;3.97;;;4.30;99.90;;;;;;10479070;28;20200;-85
2024/01/23 03:21:48;;;;;;;15.33;3.80;;;4.30;99.90;;;;;;10394235;28;20433;-84
2024/01/23 03:27:10;;;;;;;15.87;4.40;;;4.30;4.80;;;;;;10345099;28;20245;-84
2024/01/23 03:32:33;;;;;;;15.13;3.87;;;4.30;99.90;;;;;;10345308;28;20219;-84
2024/01/23 03:37:55;;;;;;;16.77;4.27;;;4.30;31.70;;;;;;10312918;28;20239;-84
2024/01/23 03:43:16;;;;;;;12.83;3.97;;;4.30;92.30;;;;;;10417422;28;20253;-84
2024/01/23 03:48:37;;;;;;;14.97;4.00;;;4.20;52.10;;;;;;10312631;28;20274;-84
2024/01/23 03:53:59;;;;;;;11.73;4.07;;;4.10;99.90;;;;;;10397457;28;20407;-79
2024/01/23 03:59:20;;;;;;;13.23;4.13;;;4.10;1.00;;;;;;10414086;28;20244;-84
2024/01/23 04:04:41;;;;;;;16.27;4.20;;;4.10;90.00;;;;;;10311643;28;20232;-84
2024/01/23 04:10:06;;;;;;;17.40;4.07;;;4.00;99.90;;;;;;10383129;28;20196;-85
2024/01/23 04:15:28;;;;;;;17.27;4.60;;;3.90;99.90;;;;;;10350264;28;20219;-85
2024/01/23 04:20:49;;;;;;;21.10;5.33;;;3.90;99.90;;;;;;10489580;28;20237;-81
2024/01/23 04:26:10;;;;;;;18.07;4.33;;;3.90;99.90;;;;;;10374821;28;20246;-85
2024/01/23 04:31:31;;;;;;;17.97;6.37;;;4.00;99.90;;;;;;10289319;28;20199;-85
2024/01/23 04:36:52;;;;;;;14.10;4.30;;;4.00;99.90;;;;;;10257395;28;20201;-84
2024/01/23 04:42:14;;;;;;;16.07;4.87;;;4.00;99.90;;;;;;10277583;28;20254;-83
2024/01/23 04:47:35;;;;;;;16.13;4.27;;;4.10;99.90;;;;;;10394806;28;20196;-78
2024/01/23 04:52:57;;;;;;;15.97;3.87;;;4.10;99.90;;;;;;10303450;28;20235;-78
2024/01/23 04:58:18;;;;;;;15.13;4.50;;;4.10;99.90;;;;;;10270079;28;20275;-78
2024/01/23 05:03:42;;;;;;;8.00;3.60;;;4.10;99.90;;;;;;10380876;28;20227;-78
2024/01/23 05:09:03;;;;;;;12.73;4.10;;;4.10;1.00;;;;;;10407229;28;20372;-78
2024/01/23 05:14:27;;;;;;;18.83;4.73;;;4.10;1.00;;;;;;10281432;28;20214;-84
2024/01/23 05:19:49;;;;;;;12.83;4.43;;;4.10;1.00;;;;;;10287849;28;20239;-84
2024/01/23 05:25:12;;;;;;;14.43;4.13;;;4.30;1.00;;;;;;10299512;28;20234;-82
2024/01/23 05:30:34;;;;;;;13.00;4.03;;;4.20;1.00;;;;;;10308957;28;20197;-82
2024/01/23 05:35:56;;;;;;;18.47;4.77;;;4.30;99.90;;;;;;10293945;28;20563;-83
2024/01/23 05:41:19;;;;;;;13.43;3.80;;;4.10;99.90;;;;;;10340978;28;20197;-84
2024/01/23 05:46:43;;;;;;;17.40;4.07;;;4.20;99.90;;;;;;10351065;28;20276;-85
2024/01/23 05:52:05;;;;;;;21.20;5.27;;;4.10;99.90;;;;;;10365814;28;20204;-83
2024/01/23 05:57:26;;;;;;;17.33;4.30;;;4.20;91.50;;;;;;10413139;28;20234;-85
2024/01/23 06:02:47;;;;;;;17.57;6.47;;;4.20;99.90;;;;;;10309008;28;20227;-83
2024/01/23 06:08:08;;;;;;;16.10;5.13;;;4.20;99.90;;;;;;10311208;28;20217;-84
2024/01/23 06:13:30;;;;;;;15.17;5.50;;;4.20;99.90;;;;;;10309062;28;20201;-83
2024/01/23 06:18:50;;;;;;;20.03;4.90;;;4.10;1.00;;;;;;10487157;28;20253;-84
2024/01/23 06:24:11;;;;;;;14.03;3.77;;;4.10;1.00;;;;;;10422787;28;20255;-82
2024/01/23 06:29:33;;;;;;;16.57;5.23;;;4.10;1.00;;;;;;10300634;28;20214;-83
2024/01/23 06:34:54;;;;;;;14.40;5.27;;;4.00;99.90;;;;;;10312775;28;20462;-78
2024/01/23 06:40:15;;;;;;;20.83;6.57;;;4.10;1.00;;;;;;10524922;28;20274;-82
2024/01/23 06:45:37;;;;;;;16.20;6.30;;;4.20;45.20;;;;;;10374505;28;20393;-81
2024/01/23 06:50:58;;;;;;;23.80;9.53;;;4.20;1.00;;;;;;10378922;28;20275;-84
2024/01/23 06:56:19;;;;;;;16.10;6.20;;;4.10;1.00;;;;;;10313169;28;20206;-83
2024/01/23 07:01:40;;;;;;;21.17;7.60;;;4.10;99.90;;;;;;10404005;28;20206;-82
2024/01/23 07:07:02;;;;;;;22.50;5.23;;;4.20;1.00;;;;;;10290591;28;20284;-82
2024/01/23 07:12:23;;;;;;;13.60;4.33;;;4.20;99.90;;;;;;10286320;28;20192;-84
2024/01/23 07:17:44;;;;;;;28.23;7.53;;;4.30;1.00;;;;;;10431520;28;20406;-84
2024/01/23 07:23:05;;;;;;;25.33;8.80;;;4.20;99.90;;;;;;10508369;28;20223;-82
2024/01/23 07:28:27;;;;;;;18.10;8.07;;;4.40;1.00;;;;;;10298446;28;20216;-83
2024/01/23 07:33:49;;;;;;;20.23;5.97;;;4.40;1.00;;;;;;10312705;28;20199;-83
2024/01/23 07:39:11;;;;;;;21.97;7.47;;;4.30;1.00;;;;;;10297444;28;20203;-83
2024/01/23 07:44:37;;;;;;;23.27;8.13;;;4.30;99.90;;;;;;10411219;28;20246;-78
2024/01/23 07:49:59;;;;;;;22.13;6.60;;;4.40;1.00;;;;;;10311461;28;20217;-80
2024/01/23 07:55:22;;;;;;;14.13;4.73;;;4.40;1.00;;;;;;10398611;28;20210;-77
2024/01/23 08:00:43;;;;;;;25.87;6.63;;;4.40;99.90;;;;;;10296394;28;20199;-79
2024/01/23 08:06:05;;;;;;;42.73;15.60;;;4.40;99.90;;;;;;10302958;28;20250;-84
2024/01/23 08:11:26;;;;;;;32.30;10.37;;;4.50;1.00;;;;;;10398307;28;20206;-81
2024/01/23 08:16:47;;;;;;;17.77;7.47;;;4.60;1.00;;;;;;10365850;28;20306;-78
2024/01/23 08:22:09;;;;;;;16.50;6.57;;;4.60;99.90;;;;;;10291414;28;20489;-78
2024/01/23 08:27:30;;;;;;;20.13;6.77;;;4.70;99.90;;;;;;10305978;28;20269;-78
2024/01/23 08:32:51;;;;;;;20.07;7.37;;;5.00;99.90;;;;;;10372167;28;20213;-79
2024/01/23 08:38:13;;;;;;;49.53;22.87;;;4.90;1.00;;;;;;10409038;28;20249;-77
2024/01/23 08:43:34;;;;;;;21.70;8.50;;;4.80;1.00;;;;;;10391997;28;20302;-81
2024/01/23 08:48:56;;;;;;;17.73;6.67;;;4.80;1.00;;;;;;10292058;28;20202;-81
2024/01/23 08:54:19;;;;;;;21.67;7.20;;;4.70;1.00;;;;;;10306281;28;20219;-79
2024/01/23 08:59:40;;;;;;;18.40;5.73;;;4.70;1.00;;;;;;10290402;28;20609;-79
2024/01/23 09:05:03;;;;;;;15.70;4.27;;;4.70;1.00;;;;;;10298919;28;20302;-81
2024/01/23 09:10:24;;;;;;;17.87;4.90;;;4.70;50.60;;;;;;10410999;28;20297;-84
2024/01/23 09:15:45;;;;;;;17.23;6.40;;;4.70;1.00;;;;;;10346326;28;20199;-78
2024/01/23 09:21:10;;;;;;;21.50;7.30;;;4.70;99.90;;;;;;10458388;28;20400;-77
2024/01/23 09:26:31;;;;;;;23.93;5.83;;;4.70;1.00;;;;;;10290432;28;20232;-77
2024/01/23 09:31:53;;;;;;;21.47;5.10;;;4.90;99.90;;;;;;10304637;28;20275;-80
2024/01/23 09:37:14;;;;;;;15.77;5.20;;;5.00;99.90;;;;;;10307740;28;20207;-82
2024/01/23 09:42:40;;;;;;;23.07;5.50;;;5.20;1.00;;;;;;10356980;28;20255;-86
2024/01/23 09:48:01;;;;;;;11.67;4.70;;;5.40;99.90;;;;;;10302474;28;20450;-84
2024/01/23 09:53:26;;;;;;;14.77;4.60;;;5.30;1.00;;;;;;10391998;28;20211;-81
2024/01/23 09:58:49;;;;;;;15.40;3.97;;;5.30;1.00;;;;;;10289469;28;20206;-81
2024/01/23 10:04:15;;;;;;;15.30;3.97;;;5.30;1.00;;;;;;10322316;28;20235;-84
2024/01/23 10:09:38;;;;;;;18.57;4.47;;;5.30;99.90;;;;;;10383066;28;20196;-82
2024/01/23 10:15:00;;;;;;;15.37;4.73;;;5.20;32.80;;;;;;10349441;28;20237;-83
2024/01/23 10:20:22;;;;;;;19.07;5.10;;;5.20;99.90;;;;;;10410542;28;20552;-84
2024/01/23 10:25:43;;;;;;;19.23;5.97;;;5.30;99.90;;;;;;10295341;28;20228;-82
2024/01/23 10:31:05;;;;;;;14.03;4.03;;;5.30;99.90;;;;;;10306420;28;20227;-82
2024/01/23 10:36:27;;;;;;;18.07;5.40;;;5.30;1.00;;;;;;10293249;28;20196;-81
2024/01/23 10:41:51;;;;;;;24.27;7.07;;;5.20;99.90;;;;;;10307149;28;20200;-82
2024/01/23 10:47:13;;;;;;;19.63;6.23;;;5.20;1.00;;;;;;10296886;28;20470;-83
2024/01/23 10:52:39;;;;;;;14.87;5.10;;;5.10;99.90;;;;;;10269900;29;20199;-82
2024/01/23 10:58:04;;;;;;;19.23;4.70;;;5.10;1.00;;;;;;10295664;28;20215;-82
2024/01/23 11:03:28;;;;;;;16.90;5.57;;;5.10;1.00;;;;;;10324073;28;20242;-80
2024/01/23 11:09:02;;;;;;;14.83;4.90;;;5.10;1.00;;;;;;10364526;28;20753;-81
2024/01/23 11:14:52;;;;;;;15.20;4.60;;;5.20;1.00;;;;;;10301547;28;20208;-81
2024/01/23 11:20:16;;;;;;;27.67;8.90;;;5.40;99.90;;;;;;10384285;28;20325;-81
2024/01/23 11:25:58;;;;;;;13.33;4.40;;;5.40;1.00;;;;;;10371555;28;20304;-84
2024/01/23 11:31:23;;;;;;;27.10;6.27;;;5.40;1.00;;;;;;10372710;28;20394;-80
2024/01/23 11:36:48;;;;;;;14.13;3.77;;;5.40;1.00;;;;;;10354142;28;20237;-81
2024/01/23 11:42:11;;;;;;;14.47;4.07;;;5.40;15.00;;;;;;10377968;28;20218;-80
2024/01/23 11:47:32;;;;;;;17.27;4.60;;;5.40;1.00;;;;;;10371469;28;20218;-84
2024/01/23 11:52:56;;;;;;;18.63;5.83;;;5.30;1.00;;;;;;10369993;28;20218;-81
2024/01/23 11:58:17;;;;;;;15.83;3.57;;;5.30;99.90;;;;;;10319283;28;20219;-81
2024/01/23 12:03:48;;;;;;;12.10;3.33;;;5.30;1.00;;;;;;10331677;28;20258;-83
2024/01/23 12:09:10;;;;;;;13.13;3.97;;;5.20;1.00;;;;;;10375991;28;20199;-81
2024/01/23 12:14:31;;;;;;;6.00;2.23;;;5.10;99.90;;;;;;10320272;28;20195;-81
2024/01/23 12:19:53;;;;;;;19.20;5.47;;;5.10;1.00;;;;;;10341544;28;20422;-82
2024/01/23 12:25:15;;;;;;;9.93;3.20;;;5.00;99.90;;;;;;10413005;28;20232;-85
2024/01/23 12:30:39;;;;;;;9.87;3.70;;;5.00;99.90;;;;;;10297141;28;20411;-79
2024/01/23 12:36:05;;;;;;;11.97;3.37;;;4.80;1.00;;;;;;10501569;28;20227;-81
2024/01/23 12:41:29;;;;;;;11.63;3.80;;;4.80;1.00;;;;;;10501243;28;20209;-83
2024/01/23 12:46:52;;;;;;;10.53;3.10;;;4.90;1.00;;;;;;10502152;28;20234;-82
2024/01/23 12:52:18;;;;;;;7.87;2.70;;;4.80;1.00;;;;;;10378605;28;20204;-81
2024/01/23 12:57:39;;;;;;;8.13;2.73;;;4.80;1.00;;;;;;10331241;28;20215;-83
2024/01/23 13:03:00;;;;;;;10.07;3.43;;;4.80;1.00;;;;;;10289300;28;20252;-83
2024/01/23 13:08:24;;;;;;;6.03;1.70;;;4.80;99.90;;;;;;10373421;28;20202;-83
2024/01/23 13:13:48;;;;;;;6.30;2.10;;;4.90;99.90;;;;;;10315327;28;20240;-84
2024/01/23 13:19:09;;;;;;;5.13;1.60;;;4.90;1.00;;;;;;10498284;28;20304;-84
2024/01/23 13:24:30;;;;;;;9.00;1.97;;;4.90;1.00;;;;;;10503493;28;20241;-81
2024/01/23 13:29:53;;;;;;;2.97;1.60;;;4.90;1.00;;;;;;10514863;28;20564;-81
2024/01/23 13:35:17;;;;;;;2.93;1.73;;;4.80;99.90;;;;;;10345642;28;20383;-84
2024/01/23 13:40:38;;;;;;;6.17;2.67;;;4.80;99.90;;;;;;10374042;28;20202;-83
2024/01/23 13:46:00;;;;;;;4.80;2.17;;;4.70;1.00;;;;;;10263265;28;20228;-83
2024/01/23 13:51:24;;;;;;;4.17;1.63;;;4.70;99.90;;;;;;10363653;28;20287;-81
2024/01/23 13:56:46;;;;;;;5.30;2.63;;;4.50;1.00;;;;;;10300767;28;20286;-86
2024/01/23 14:02:10;;;;;;;3.20;1.80;;;4.40;1.00;;;;;;10372882;28;20523;-76
2024/01/23 14:07:35;;;;;;;3.47;1.70;;;4.40;1.00;;;;;;10292831;28;20228;-78
2024/01/23 14:12:56;;;;;;;6.37;2.70;;;4.40;2.40;;;;;;10346956;28;20901;-78
2024/01/23 14:18:19;;;;;;;5.80;2.47;;;4.30;1.00;;;;;;10506014;28;20262;-81
2024/01/23 14:23:40;;;;;;;5.70;2.30;;;4.40;10.20;;;;;;10427877;28;20238;-82
2024/01/23 14:29:01;;;;;;;5.17;2.30;;;4.50;99.90;;;;;;10510063;28;20215;-79
2024/01/23 14:34:23;;;;;;;14.17;4.13;;;4.50;1.00;;;;;;10513351;28;20535;-82
2024/01/23 14:39:44;;;;;;;9.30;3.27;;;4.50;1.00;;;;;;10514959;28;20235;-85
2024/01/23 14:45:08;;;;;;;10.20;3.10;;;4.60;99.90;;;;;;10517356;28;20331;-90
2024/01/23 14:50:30;;;;;;;15.70;3.03;;;4.60;1.00;;;;;;10510070;28;20195;-83
2024/01/23 14:55:52;;;;;;;12.00;3.00;;;4.70;1.00;;;;;;10352909;28;20214;-81
2024/01/23 15:01:14;;;;;;;22.40;3.97;;;4.70;99.90;;;;;;10355618;28;20226;-81
2024/01/23 15:06:35;;;;;;;24.37;4.13;;;4.80;1.00;;;;;;10388402;28;20510;-81
2024/01/23 15:11:56;;;;;;;28.57;4.97;;;4.80;99.90;;;;;;10334916;28;20264;-82
2024/01/23 15:17:18;;;;;;;31.43;5.33;;;4.90;99.90;;;;;;10407630;28;20245;-82
2024/01/23 15:22:39;;;;;;;41.00;6.57;;;4.90;1.00;;;;;;10486927;28;20282;-80
2024/01/23 15:28:01;;;;;;;34.13;5.23;;;4.90;99.90;;;;;;10372037;28;20204;-82
2024/01/23 15:33:22;;;;;;;27.63;5.53;;;4.90;99.90;;;;;;10337626;28;20511;-83
2024/01/23 15:38:59;;;;;;;30.17;5.20;;;5.00;99.90;;;;;;10342911;28;20254;-81
2024/01/23 15:44:39;;;;;;;33.07;5.60;;;4.90;99.90;;;;;;10266648;28;20535;-85
2024/01/23 15:50:04;;;;;;;36.37;5.97;;;5.10;1.00;;;;;;10277564;28;20236;-80
2024/01/23 15:55:25;;;;;;;38.07;6.70;;;5.10;99.90;;;;;;10308338;28;20202;-83
2024/01/23 16:00:48;;;;;;;31.53;6.33;;;5.10;1.00;;;;;;10301946;28;20211;-82
2024/01/23 16:06:09;;;;;;;38.73;5.93;;;5.10;1.00;;;;;;10360500;28;20235;-82
2024/01/23 16:11:31;;;;;;;30.93;5.80;;;5.10;54.30;;;;;;10328580;28;20249;-81
2024/01/23 16:16:52;;;;;;;33.93;5.60;;;5.00;1.00;;;;;;10417997;28;20213;-81
2024/01/23 16:22:15;;;;;;;32.80;6.17;;;4.90;99.90;;;;;;10492164;28;20539;-82
2024/01/23 16:27:40;;;;;;;42.37;7.20;;;4.90;1.00;;;;;;10504888;28;20524;-81
2024/01/23 16:33:01;;;;;;;38.43;6.03;;;4.80;99.90;;;;;;10378132;28;20208;-82
2024/01/23 16:38:22;;;;;;;38.57;6.50;;;4.90;1.00;;;;;;10270394;28;20199;-82
2024/01/23 16:43:43;;;;;;;34.03;6.50;;;4.90;21.10;;;;;;10368216;28;20226;-81
2024/01/23 16:49:06;;;;;;;22.83;5.03;;;4.80;99.90;;;;;;10283122;28;20203;-84
2024/01/23 16:54:27;;;;;;;33.20;5.67;;;4.80;99.90;;;;;;10364601;28;20203;-83
2024/01/23 16:59:49;;;;;;;39.57;7.20;;;4.90;1.00;;;;;;10383382;28;20208;-83
2024/01/23 17:05:11;;;;;;;28.97;5.80;;;4.90;1.00;;;;;;10391543;28;20250;-84
2024/01/23 17:10:32;;;;;;;37.00;6.63;;;4.90;99.90;;;;;;10397928;28;20488;-82
2024/01/23 17:15:54;;;;;;;31.43;6.43;;;4.90;1.00;;;;;;10376878;28;20387;-83
2024/01/23 17:21:15;;;;;;;42.53;6.80;;;4.90;1.00;;;;;;10504637;28;20235;-82
2024/01/23 17:26:38;;;;;;;37.60;7.03;;;4.90;1.00;;;;;;10394271;28;20530;-81
2024/01/23 17:31:59;;;;;;;40.03;6.33;;;4.90;1.00;;;;;;10409857;28;20497;-81
2024/01/23 17:37:20;;;;;;;34.33;6.30;;;5.10;1.00;;;;;;10291804;28;20216;-83
2024/01/23 17:42:42;;;;;;;30.00;5.43;;;5.00;99.90;;;;;;10361416;28;20205;-81
2024/01/23 17:48:03;;;;;;;50.80;6.77;;;5.00;1.00;;;;;;10376263;28;20269;-82
2024/01/23 17:53:25;;;;;;;33.70;6.47;;;4.90;88.90;;;;;;10382653;28;20204;-83
2024/01/23 17:58:46;;;;;;;30.27;6.80;;;5.00;1.00;;;;;;10305379;28;20203;-83
2024/01/23 18:04:08;;;;;;;35.70;6.97;;;5.00;1.00;;;;;;10307206;28;20232;-83
2024/01/23 18:09:29;;;;;;;37.40;6.67;;;5.00;1.00;;;;;;10397224;28;20224;-83
2024/01/23 18:14:53;;;;;;;40.00;6.10;;;5.00;1.00;;;;;;10319183;28;20195;-82
2024/01/23 18:20:16;;;;;;;37.17;5.23;;;5.00;1.00;;;;;;10505088;28;20547;-83
2024/01/23 18:25:40;;;;;;;26.77;5.20;;;4.90;1.00;;;;;;10325307;28;20246;-83
2024/01/23 18:31:04;;;;;;;35.93;5.13;;;5.00;99.90;;;;;;10415931;28;20200;-83
2024/01/23 18:36:26;;;;;;;30.53;5.97;;;5.00;1.00;;;;;;10401786;28;20592;-84
2024/01/23 18:41:48;;;;;;;33.10;6.10;;;5.10;99.90;;;;;;10329491;28;20198;-83
2024/01/23 18:47:10;;;;;;;28.77;5.50;;;5.10;99.90;;;;;;10398040;28;20234;-83
2024/01/23 18:52:31;;;;;;;32.17;5.83;;;5.10;1.00;;;;;;10379863;28;20210;-83
2024/01/23 18:57:53;;;;;;;31.43;4.90;;;5.10;1.00;;;;;;10409392;28;20483;-83
2024/01/23 19:03:14;;;;;;;24.43;5.10;;;5.00;1.00;;;;;;10527135;28;20209;-84
2024/01/23 19:08:38;;;;;;;28.63;6.23;;;5.10;7.10;;;;;;10524031;28;20231;-83
2024/01/23 19:13:59;;;;;;;36.40;7.40;;;5.00;89.90;;;;;;10512180;28;20196;-83
2024/01/23 19:19:22;;;;;;;31.40;5.97;;;4.90;99.90;;;;;;10296421;28;20260;-83
2024/01/23 19:24:44;;;;;;;32.97;4.73;;;5.10;1.00;;;;;;10317319;28;20223;-83
2024/01/23 19:30:08;;;;;;;29.10;5.83;;;5.10;1.00;;;;;;10299189;28;20207;-83
2024/01/23 19:35:30;;;;;;;33.83;6.13;;;5.10;1.00;;;;;;10368252;28;20203;-83
2024/01/23 19:40:52;;;;;;;23.63;4.83;;;5.10;1.00;;;;;;10368550;28;20207;-83
2024/01/23 19:46:13;;;;;;;33.30;6.03;;;5.10;1.00;;;;;;10368397;28;20240;-83
2024/01/23 19:51:37;;;;;;;29.53;5.90;;;5.10;1.00;;;;;;10365625;28;20189;-83
2024/01/23 19:57:00;;;;;;;23.70;5.50;;;5.00;1.00;;;;;;10353146;28;20201;-81
2024/01/23 20:02:23;;;;;;;25.00;6.57;;;5.00;1.00;;;;;;10443257;28;20209;-81
2024/01/23 20:07:44;;;;;;;24.10;5.77;;;5.00;1.00;;;;;;10360130;28;20526;-82
2024/01/23 20:13:07;;;;;;;28.23;5.47;;;4.90;39.90;;;;;;10379397;28;20192;-82
2024/01/23 20:18:31;;;;;;;38.57;6.77;;;4.90;99.90;;;;;;10514585;28;20229;-83
2024/01/23 20:23:54;;;;;;;27.53;5.23;;;4.80;99.90;;;;;;10506944;28;20300;-83
2024/01/23 20:29:16;;;;;;;37.43;6.73;;;4.80;99.90;;;;;;10427795;28;20213;-83
2024/01/23 20:34:41;;;;;;;38.17;6.37;;;4.80;66.80;;;;;;10357334;28;20284;-82
2024/01/23 20:40:03;;;;;;;27.97;6.20;;;4.80;81.40;;;;;;10288660;28;20449;-83
2024/01/23 20:45:26;;;;;;;28.87;5.10;;;4.80;95.10;;;;;;10372712;28;20232;-83
2024/01/23 20:50:49;;;;;;;32.93;5.67;;;4.80;99.90;;;;;;10269558;28;20191;-83
2024/01/23 20:56:12;;;;;;;33.07;5.43;;;4.70;45.60;;;;;;10288851;28;20223;-82
2024/01/23 21:01:34;;;;;;;34.13;6.33;;;4.60;93.30;;;;;;10317081;28;20202;-83
2024/01/23 21:06:56;;;;;;;26.50;6.30;;;4.50;78.30;;;;;;10368138;28;20231;-83
2024/01/23 21:12:17;;;;;;;32.53;7.90;;;4.40;99.90;;;;;;10295572;28;20195;-81
2024/01/23 21:17:39;;;;;;;43.00;7.40;;;4.30;1.00;;;;;;10348404;28;20432;-81
2024/01/23 21:23:01;;;;;;;36.23;5.73;;;4.30;1.00;;;;;;10381508;28;20268;-82
2024/01/23 21:28:23;;;;;;;32.90;6.03;;;4.30;1.00;;;;;;10393454;28;20227;-82
2024/01/23 21:33:44;;;;;;;33.33;5.17;;;4.30;1.00;;;;;;10326898;28;20226;-82
2024/01/23 21:39:06;;;;;;;28.60;5.73;;;4.20;1.00;;;;;;10379757;28;20202;-82
2024/01/23 21:44:27;;;;;;;29.83;5.20;;;4.10;99.90;;;;;;10381183;28;20214;-83
2024/01/23 21:49:49;;;;;;;21.67;5.20;;;4.00;99.90;;;;;;10397655;28;20202;-82
2024/01/23 21:55:11;;;;;;;22.63;4.93;;;4.00;99.90;;;;;;10276582;28;20270;-83
2024/01/23 22:00:32;;;;;;;32.90;7.00;;;4.00;99.90;;;;;;10281037;28;20254;-83
2024/01/23 22:05:53;;;;;;;26.87;5.50;;;4.00;99.90;;;;;;10378643;28;20445;-82
2024/01/23 22:11:15;;;;;;;25.20;4.30;;;4.00;1.00;;;;;;10378838;28;20253;-81
2024/01/23 22:16:36;;;;;;;38.40;9.80;;;4.00;99.90;;;;;;10393552;28;20200;-82
2024/01/23 22:21:58;;;;;;;44.03;10.37;;;4.00;99.90;;;;;;10311934;28;20241;-83
2024/01/23 22:27:19;;;;;;;37.80;7.97;;;4.10;71.20;;;;;;10332882;28;20585;-82
2024/01/23 22:32:41;;;;;;;36.13;7.77;;;4.10;1.00;;;;;;10385013;28;20265;-83
2024/01/23 22:38:03;;;;;;;43.20;7.47;;;4.10;99.90;;;;;;10385030;28;20401;-83
2024/01/23 22:43:24;;;;;;;36.03;7.37;;;4.10;99.90;;;;;;10404242;28;20200;-83
2024/01/23 22:48:46;;;;;;;24.50;5.53;;;4.20;99.90;;;;;;10382428;28;20227;-82
2024/01/23 22:54:07;;;;;;;40.17;7.67;;;4.10;99.90;;;;;;10384549;28;20222;-83
2024/01/23 22:59:29;;;;;;;35.73;6.73;;;4.10;99.90;;;;;;10383356;28;20208;-81
2024/01/23 23:04:53;;;;;;;36.80;8.07;;;4.10;99.90;;;;;;10299395;28;20238;-82
2024/01/23 23:10:14;;;;;;;27.37;7.17;;;4.00;1.00;;;;;;10382823;28;20200;-81
2024/01/23 23:15:36;;;;;;;33.57;6.53;;;4.10;99.90;;;;;;10340633;28;20314;-81
2024/01/23 23:20:59;;;;;;;37.17;6.70;;;4.00;99.90;;;;;;10475285;28;20240;-81
2024/01/23 23:26:22;;;;;;;31.93;6.53;;;3.90;1.00;;;;;;10482044;28;20224;-83
2024/01/23 23:31:46;;;;;;;30.57;6.50;;;3.90;1.00;;;;;;10481462;28;20275;-83
2024/01/23 23:37:10;;;;;;;31.50;6.63;;;3.80;1.00;;;;;;10481499;28;20200;-82
2024/01/23 23:42:32;;;;;;;23.73;4.63;;;3.80;1.00;;;;;;10481244;28;20205;-81
2024/01/23 23:47:56;;;;;;;23.27;5.03;;;3.80;1.00;;;;;;10429318;28;20231;-82
2024/01/23 23:53:17;;;;;;;20.97;5.63;;;3.80;1.00;;;;;;10359246;28;20270;-82
2024/01/23 23:58:42;;;;;;;23.60;6.17;;;3.70;99.90;;;;;;10376725;28;20198;-83
